sensor_id;sensor_type;location;lat;lon;timestamp;pressure;altitude;pressure_sealevel;temperature;humidity
46412;BME280;32113;42.012;24.870;2022-09-09T00:00:37;99193.19;;;22.77;47.44
46412;BME280;32113;42.012;24.870;2022-09-09T00:08:22;99184.44;;;22.92;47.10
46412;BME280;32113;42.012;24.870;2022-09-09T00:10:59;99180.44;;;23.01;46.97
46412;BME280;32113;42.012;24.870;2022-09-09T00:21:06;99176.66;;;22.76;47.73
46412;BME280;32113;42.012;24.870;2022-09-09T00:28:50;99177.13;;;22.83;47.86
46412;BME280;32113;42.012;24.870;2022-09-09T00:31:21;99177.78;;;22.72;48.21
46412;BME280;32113;42.012;24.870;2022-09-09T00:33:48;99178.59;;;22.58;48.75
46412;BME280;32113;42.012;24.870;2022-09-09T00:36:15;99174.97;;;22.44;49.15
46412;BME280;32113;42.012;24.870;2022-09-09T00:38:47;99184.16;;;22.52;49.10
46412;BME280;32113;42.012;24.870;2022-09-09T00:41:19;99180.44;;;22.56;49.20
46412;BME280;32113;42.012;24.870;2022-09-09T00:43:50;99188.13;;;22.59;49.12
46412;BME280;32113;42.012;24.870;2022-09-09T00:48:58;99191.78;;;22.71;49.02
46412;BME280;32113;42.012;24.870;2022-09-09T00:56:45;99195.59;;;22.65;49.38
46412;BME280;32113;42.012;24.870;2022-09-09T00:59:16;99202.53;;;22.66;49.59
46412;BME280;32113;42.012;24.870;2022-09-09T01:01:45;99209.53;;;22.66;49.69
46412;BME280;32113;42.012;24.870;2022-09-09T01:04:13;99198.97;;;22.67;49.43
46412;BME280;32113;42.012;24.870;2022-09-09T01:06:41;99205.22;;;22.65;49.55
46412;BME280;32113;42.012;24.870;2022-09-09T01:09:16;99204.38;;;22.64;49.55
46412;BME280;32113;42.012;24.870;2022-09-09T01:12:01;99205.78;;;22.70;49.47
46412;BME280;32113;42.012;24.870;2022-09-09T01:16:56;99212.78;;;22.69;49.59
46412;BME280;32113;42.012;24.870;2022-09-09T01:19:27;99215.47;;;22.68;49.80
46412;BME280;32113;42.012;24.870;2022-09-09T01:22:03;99210.66;;;22.76;49.60
46412;BME280;32113;42.012;24.870;2022-09-09T01:24:38;99210.94;;;22.72;49.49
46412;BME280;32113;42.012;24.870;2022-09-09T01:27:07;99201.50;;;22.69;49.66
46412;BME280;32113;42.012;24.870;2022-09-09T01:29:33;99198.13;;;22.67;49.78
46412;BME280;32113;42.012;24.870;2022-09-09T01:32:02;99198.66;;;22.57;49.89
46412;BME280;32113;42.012;24.870;2022-09-09T01:34:29;99187.59;;;22.52;50.16
46412;BME280;32113;42.012;24.870;2022-09-09T01:37:02;99193.09;;;22.48;50.24
46412;BME280;32113;42.012;24.870;2022-09-09T01:39:29;99196.81;;;22.43;50.56
46412;BME280;32113;42.012;24.870;2022-09-09T01:41:55;99192.25;;;22.47;50.88
46412;BME280;32113;42.012;24.870;2022-09-09T01:44:21;99199.44;;;22.43;50.80
46412;BME280;32113;42.012;24.870;2022-09-09T01:46:47;99196.25;;;22.38;51.34
46412;BME280;32113;42.012;24.870;2022-09-09T01:49:12;99195.69;;;22.33;51.27
46412;BME280;32113;42.012;24.870;2022-09-09T01:51:38;99195.69;;;22.33;51.44
46412;BME280;32113;42.012;24.870;2022-09-09T01:54:06;99185.88;;;22.37;51.23
46412;BME280;32113;42.012;24.870;2022-09-09T02:04:03;99179.22;;;22.31;51.30
46412;BME280;32113;42.012;24.870;2022-09-09T02:06:34;99184.44;;;22.31;51.10
46412;BME280;32113;42.012;24.870;2022-09-09T02:09:00;99176.19;;;22.23;51.86
46412;BME280;32113;42.012;24.870;2022-09-09T02:11:27;99186.16;;;22.16;51.81
46412;BME280;32113;42.012;24.870;2022-09-09T02:14:16;99181.03;;;22.14;51.72
46412;BME280;32113;42.012;24.870;2022-09-09T02:16:44;99190.81;;;22.11;52.09
46412;BME280;32113;42.012;24.870;2022-09-09T02:21:42;99189.56;;;22.02;52.22
46412;BME280;32113;42.012;24.870;2022-09-09T02:24:09;99191.31;;;22.01;52.46
46412;BME280;32113;42.012;24.870;2022-09-09T02:26:37;99182.81;;;21.98;52.73
46412;BME280;32113;42.012;24.870;2022-09-09T02:29:06;99182.59;;;21.86;53.22
46412;BME280;32113;42.012;24.870;2022-09-09T02:31:33;99175.91;;;21.81;53.63
46412;BME280;32113;42.012;24.870;2022-09-09T02:34:01;99184.09;;;21.74;53.74
46412;BME280;32113;42.012;24.870;2022-09-09T02:36:28;99178.69;;;21.77;53.88
46412;BME280;32113;42.012;24.870;2022-09-09T02:38:55;99181.63;;;21.71;53.99
46412;BME280;32113;42.012;24.870;2022-09-09T02:41:24;99190.63;;;21.65;54.03
46412;BME280;32113;42.012;24.870;2022-09-09T02:43:50;99182.19;;;21.60;54.32
46412;BME280;32113;42.012;24.870;2022-09-09T02:49:01;99181.53;;;21.57;54.33
46412;BME280;32113;42.012;24.870;2022-09-09T02:54:20;99172.50;;;21.46;54.41
46412;BME280;32113;42.012;24.870;2022-09-09T02:56:51;99172.91;;;21.38;54.76
46412;BME280;32113;42.012;24.870;2022-09-09T02:59:19;99161.97;;;21.32;55.07
46412;BME280;32113;42.012;24.870;2022-09-09T03:01:44;99163.72;;;21.31;55.47
46412;BME280;32113;42.012;24.870;2022-09-09T03:04:10;99166.00;;;21.37;55.33
46412;BME280;32113;42.012;24.870;2022-09-09T03:06:35;99172.59;;;21.45;55.17
46412;BME280;32113;42.012;24.870;2022-09-09T03:09:00;99177.03;;;21.43;55.42
46412;BME280;32113;42.012;24.870;2022-09-09T03:11:27;99178.31;;;21.51;54.96
46412;BME280;32113;42.012;24.870;2022-09-09T03:13:53;99194.59;;;21.57;54.72
46412;BME280;32113;42.012;24.870;2022-09-09T03:16:19;99196.41;;;21.55;54.73
46412;BME280;32113;42.012;24.870;2022-09-09T03:18:46;99203.16;;;21.59;54.40
46412;BME280;32113;42.012;24.870;2022-09-09T03:21:11;99208.38;;;21.59;54.46
46412;BME280;32113;42.012;24.870;2022-09-09T03:23:36;99206.63;;;21.59;54.31
46412;BME280;32113;42.012;24.870;2022-09-09T03:26:02;99206.53;;;21.61;54.32
46412;BME280;32113;42.012;24.870;2022-09-09T03:28:27;99202.25;;;21.60;54.08
46412;BME280;32113;42.012;24.870;2022-09-09T03:31:02;99203.50;;;21.52;54.38
46412;BME280;32113;42.012;24.870;2022-09-09T03:33:28;99213.19;;;21.50;54.69
46412;BME280;32113;42.012;24.870;2022-09-09T03:35:54;99210.47;;;21.52;54.50
46412;BME280;32113;42.012;24.870;2022-09-09T03:38:21;99219.09;;;21.54;54.69
46412;BME280;32113;42.012;24.870;2022-09-09T03:40:51;99201.75;;;21.53;54.54
46412;BME280;32113;42.012;24.870;2022-09-09T03:43:17;99203.84;;;21.46;55.24
46412;BME280;32113;42.012;24.870;2022-09-09T03:45:46;99203.50;;;21.52;54.90
46412;BME280;32113;42.012;24.870;2022-09-09T03:48:14;99200.38;;;21.62;54.67
46412;BME280;32113;42.012;24.870;2022-09-09T03:50:50;99203.75;;;21.64;53.71
46412;BME280;32113;42.012;24.870;2022-09-09T03:53:16;99212.50;;;21.63;54.05
46412;BME280;32113;42.012;24.870;2022-09-09T03:55:48;99207.56;;;21.58;54.18
46412;BME280;32113;42.012;24.870;2022-09-09T03:58:15;99210.47;;;21.52;54.51
46412;BME280;32113;42.012;24.870;2022-09-09T04:00:40;99204.75;;;21.61;53.85
46412;BME280;32113;42.012;24.870;2022-09-09T04:03:07;99209.16;;;21.61;53.88
46412;BME280;32113;42.012;24.870;2022-09-09T04:05:33;99209.47;;;21.55;53.90
46412;BME280;32113;42.012;24.870;2022-09-09T04:07:59;99209.72;;;21.50;54.36
46412;BME280;32113;42.012;24.870;2022-09-09T04:10:24;99205.50;;;21.47;54.61
46412;BME280;32113;42.012;24.870;2022-09-09T04:12:49;99198.44;;;21.49;54.76
46412;BME280;32113;42.012;24.870;2022-09-09T04:15:15;99198.50;;;21.48;54.47
46412;BME280;32113;42.012;24.870;2022-09-09T04:17:40;99199.03;;;21.55;54.72
46412;BME280;32113;42.012;24.870;2022-09-09T04:20:05;99202.63;;;21.52;54.63
46412;BME280;32113;42.012;24.870;2022-09-09T04:22:32;99197.03;;;21.60;54.82
46412;BME280;32113;42.012;24.870;2022-09-09T04:24:58;99199.38;;;21.64;54.35
46412;BME280;32113;42.012;24.870;2022-09-09T04:27:23;99195.84;;;21.65;54.28
46412;BME280;32113;42.012;24.870;2022-09-09T04:29:48;99207.38;;;21.61;53.96
46412;BME280;32113;42.012;24.870;2022-09-09T04:32:13;99205.19;;;21.53;54.41
46412;BME280;32113;42.012;24.870;2022-09-09T04:34:39;99211.19;;;21.56;54.45
46412;BME280;32113;42.012;24.870;2022-09-09T04:37:06;99208.38;;;21.59;54.29
46412;BME280;32113;42.012;24.870;2022-09-09T04:39:31;99208.31;;;21.60;54.08
46412;BME280;32113;42.012;24.870;2022-09-09T04:41:56;99211.69;;;21.62;54.31
46412;BME280;32113;42.012;24.870;2022-09-09T04:44:22;99214.38;;;21.61;54.43
46412;BME280;32113;42.012;24.870;2022-09-09T04:46:47;99216.06;;;21.62;54.23
46412;BME280;32113;42.012;24.870;2022-09-09T04:49:12;99212.69;;;21.60;54.24
46412;BME280;32113;42.012;24.870;2022-09-09T04:51:37;99206.84;;;21.55;54.41
46412;BME280;32113;42.012;24.870;2022-09-09T04:54:03;99221.03;;;21.50;54.84
46412;BME280;32113;42.012;24.870;2022-09-09T04:56:30;99217.06;;;21.59;54.55
46412;BME280;32113;42.012;24.870;2022-09-09T04:58:55;99211.50;;;21.65;54.35
46412;BME280;32113;42.012;24.870;2022-09-09T05:01:21;99213.88;;;21.70;54.18
46412;BME280;32113;42.012;24.870;2022-09-09T05:03:47;99217.78;;;21.79;53.80
46412;BME280;32113;42.012;24.870;2022-09-09T05:06:19;99224.69;;;21.80;53.69
46412;BME280;32113;42.012;24.870;2022-09-09T05:08:45;99233.22;;;21.84;53.22
46412;BME280;32113;42.012;24.870;2022-09-09T05:11:20;99239.03;;;21.89;53.15
46412;BME280;32113;42.012;24.870;2022-09-09T05:13:47;99245.59;;;21.96;53.58
46412;BME280;32113;42.012;24.870;2022-09-09T05:16:13;99252.31;;;22.00;52.88
46412;BME280;32113;42.012;24.870;2022-09-09T05:18:38;99239.34;;;21.99;53.06
46412;BME280;32113;42.012;24.870;2022-09-09T05:21:04;99234.81;;;22.02;53.02
46412;BME280;32113;42.012;24.870;2022-09-09T05:23:29;99237.00;;;22.10;53.04
46412;BME280;32113;42.012;24.870;2022-09-09T05:25:58;99234.78;;;22.18;52.96
46412;BME280;32113;42.012;24.870;2022-09-09T05:28:26;99232.84;;;22.22;52.76
46412;BME280;32113;42.012;24.870;2022-09-09T05:31:25;99233.78;;;22.21;52.83
46412;BME280;32113;42.012;24.870;2022-09-09T05:33:44;99230.25;;;22.22;53.09
46412;BME280;32113;42.012;24.870;2022-09-09T05:36:14;99220.53;;;22.24;53.09
46412;BME280;32113;42.012;24.870;2022-09-09T05:38:40;99214.38;;;22.25;53.16
46412;BME280;32113;42.012;24.870;2022-09-09T05:41:06;99212.91;;;22.21;53.12
46412;BME280;32113;42.012;24.870;2022-09-09T05:43:32;99200.56;;;22.23;53.25
46412;BME280;32113;42.012;24.870;2022-09-09T05:46:10;99209.16;;;22.25;53.08
46412;BME280;32113;42.012;24.870;2022-09-09T05:48:37;99214.97;;;22.30;52.55
46412;BME280;32113;42.012;24.870;2022-09-09T05:51:03;99225.31;;;22.32;52.59
46412;BME280;32113;42.012;24.870;2022-09-09T05:53:29;99234.75;;;22.35;52.31
46412;BME280;32113;42.012;24.870;2022-09-09T05:56:09;99235.63;;;22.35;51.45
46412;BME280;32113;42.012;24.870;2022-09-09T05:58:39;99238.09;;;22.22;51.86
46412;BME280;32113;42.012;24.870;2022-09-09T06:01:05;99235.63;;;22.19;52.02
46412;BME280;32113;42.012;24.870;2022-09-09T06:03:32;99241.78;;;22.18;52.11
46412;BME280;32113;42.012;24.870;2022-09-09T06:06:01;99243.13;;;22.25;52.20
46412;BME280;32113;42.012;24.870;2022-09-09T06:08:30;99238.50;;;22.30;52.32
46412;BME280;32113;42.012;24.870;2022-09-09T06:11:00;99235.78;;;22.32;52.12
46412;BME280;32113;42.012;24.870;2022-09-09T06:13:27;99228.63;;;22.36;52.16
46412;BME280;32113;42.012;24.870;2022-09-09T06:15:52;99215.44;;;22.37;51.85
46412;BME280;32113;42.012;24.870;2022-09-09T06:18:18;99214.78;;;22.34;51.36
46412;BME280;32113;42.012;24.870;2022-09-09T06:21:00;99201.63;;;22.35;51.50
46412;BME280;32113;42.012;24.870;2022-09-09T06:23:26;99197.66;;;22.44;51.94
46412;BME280;32113;42.012;24.870;2022-09-09T06:25:51;99192.00;;;22.52;51.23
46412;BME280;32113;42.012;24.870;2022-09-09T06:28:17;99196.13;;;22.56;51.14
46412;BME280;32113;42.012;24.870;2022-09-09T06:30:43;99198.84;;;22.54;51.36
46412;BME280;32113;42.012;24.870;2022-09-09T06:33:09;99196.81;;;22.60;51.14
46412;BME280;32113;42.012;24.870;2022-09-09T06:35:34;99203.88;;;22.57;51.20
46412;BME280;32113;42.012;24.870;2022-09-09T06:38:00;99200.16;;;22.62;51.46
46412;BME280;32113;42.012;24.870;2022-09-09T06:40:25;99198.81;;;22.70;51.53
46412;BME280;32113;42.012;24.870;2022-09-09T06:42:50;99206.28;;;22.77;51.28
46412;BME280;32113;42.012;24.870;2022-09-09T06:45:16;99212.53;;;22.74;50.93
46412;BME280;32113;42.012;24.870;2022-09-09T06:47:42;99218.03;;;22.84;50.99
46412;BME280;32113;42.012;24.870;2022-09-09T06:50:08;99230.59;;;22.93;51.07
46412;BME280;32113;42.012;24.870;2022-09-09T06:52:33;99224.53;;;22.93;51.12
46412;BME280;32113;42.012;24.870;2022-09-09T06:54:58;99235.06;;;22.91;51.14
46412;BME280;32113;42.012;24.870;2022-09-09T06:57:24;99229.47;;;22.97;51.36
46412;BME280;32113;42.012;24.870;2022-09-09T06:59:49;99226.41;;;23.05;51.15
46412;BME280;32113;42.012;24.870;2022-09-09T07:02:14;99227.72;;;23.13;50.67
46412;BME280;32113;42.012;24.870;2022-09-09T07:04:40;99226.41;;;23.20;50.82
46412;BME280;32113;42.012;24.870;2022-09-09T07:07:05;99228.03;;;23.22;50.59
46412;BME280;32113;42.012;24.870;2022-09-09T07:09:30;99225.13;;;23.27;50.34
46412;BME280;32113;42.012;24.870;2022-09-09T07:11:56;99216.31;;;23.28;50.27
46412;BME280;32113;42.012;24.870;2022-09-09T07:14:24;99230.91;;;23.32;50.30
46412;BME280;32113;42.012;24.870;2022-09-09T07:16:49;99232.34;;;23.38;49.94
46412;BME280;32113;42.012;24.870;2022-09-09T07:19:15;99237.28;;;23.43;50.04
46412;BME280;32113;42.012;24.870;2022-09-09T07:21:40;99235.44;;;23.45;49.95
46412;BME280;32113;42.012;24.870;2022-09-09T07:24:06;99237.59;;;23.53;49.56
46412;BME280;32113;42.012;24.870;2022-09-09T07:26:33;99231.50;;;23.52;50.09
46412;BME280;32113;42.012;24.870;2022-09-09T07:28:58;99225.03;;;23.58;49.57
46412;BME280;32113;42.012;24.870;2022-09-09T07:31:31;99218.78;;;23.60;49.83
46412;BME280;32113;42.012;24.870;2022-09-09T07:33:57;99214.72;;;23.69;49.43
46412;BME280;32113;42.012;24.870;2022-09-09T07:36:24;99224.09;;;23.59;48.89
46412;BME280;32113;42.012;24.870;2022-09-09T07:38:51;99221.41;;;23.46;49.34
46412;BME280;32113;42.012;24.870;2022-09-09T07:41:22;99227.38;;;23.48;49.70
46412;BME280;32113;42.012;24.870;2022-09-09T07:43:48;99219.97;;;23.55;49.63
46412;BME280;32113;42.012;24.870;2022-09-09T07:46:14;99225.91;;;23.58;49.36
46412;BME280;32113;42.012;24.870;2022-09-09T07:48:44;99215.03;;;23.65;49.52
46412;BME280;32113;42.012;24.870;2022-09-09T07:51:11;99208.75;;;23.67;50.17
46412;BME280;32113;42.012;24.870;2022-09-09T07:53:37;99211.44;;;23.80;49.40
46412;BME280;32113;42.012;24.870;2022-09-09T07:56:10;99216.59;;;23.82;49.52
46412;BME280;32113;42.012;24.870;2022-09-09T07:58:36;99204.50;;;23.94;49.31
46412;BME280;32113;42.012;24.870;2022-09-09T08:02:02;99212.69;;;24.02;48.70
46412;BME280;32113;42.012;24.870;2022-09-09T08:03:57;99210.47;;;24.10;48.08
46412;BME280;32113;42.012;24.870;2022-09-09T08:06:27;99208.38;;;24.16;48.61
46412;BME280;32113;42.012;24.870;2022-09-09T08:08:52;99202.66;;;24.23;48.62
46412;BME280;32113;42.012;24.870;2022-09-09T08:11:19;99203.94;;;24.31;49.16
46412;BME280;32113;42.012;24.870;2022-09-09T08:13:45;99194.63;;;24.39;48.71
46412;BME280;32113;42.012;24.870;2022-09-09T08:16:12;99197.34;;;24.51;48.17
46412;BME280;32113;42.012;24.870;2022-09-09T08:18:38;99196.44;;;24.65;48.47
46412;BME280;32113;42.012;24.870;2022-09-09T08:23:37;99183.78;;;25.11;47.88
46412;BME280;32113;42.012;24.870;2022-09-09T08:26:22;99181.03;;;25.38;46.90
46412;BME280;32113;42.012;24.870;2022-09-09T08:28:51;99171.53;;;25.62;45.30
46412;BME280;32113;42.012;24.870;2022-09-09T08:31:18;99184.75;;;25.73;45.68
46412;BME280;32113;42.012;24.870;2022-09-09T08:33:44;99173.13;;;25.89;45.73
46412;BME280;32113;42.012;24.870;2022-09-09T08:36:19;99182.91;;;26.11;44.77
46412;BME280;32113;42.012;24.870;2022-09-09T08:38:48;99177.28;;;26.29;44.53
46412;BME280;32113;42.012;24.870;2022-09-09T08:43:50;99170.66;;;26.59;43.77
46412;BME280;32113;42.012;24.870;2022-09-09T08:46:22;99168.19;;;26.69;43.45
46412;BME280;32113;42.012;24.870;2022-09-09T08:51:17;99159.03;;;27.20;42.92
46412;BME280;32113;42.012;24.870;2022-09-09T08:53:44;99159.75;;;27.34;42.24
46412;BME280;32113;42.012;24.870;2022-09-09T08:56:16;99159.13;;;27.53;41.88
46412;BME280;32113;42.012;24.870;2022-09-09T08:58:45;99161.97;;;27.73;40.74
46412;BME280;32113;42.012;24.870;2022-09-09T09:01:17;99161.81;;;27.86;40.95
46412;BME280;32113;42.012;24.870;2022-09-09T09:11:39;99153.75;;;28.53;39.76
46412;BME280;32113;42.012;24.870;2022-09-09T09:14:21;99151.31;;;28.61;38.81
46412;BME280;32113;42.012;24.870;2022-09-09T09:16:58;99140.44;;;28.54;39.49
46412;BME280;32113;42.012;24.870;2022-09-09T09:19:25;99147.34;;;28.77;39.08
46412;BME280;32113;42.012;24.870;2022-09-09T09:24:18;99139.78;;;29.15;38.54
46412;BME280;32113;42.012;24.870;2022-09-09T09:26:43;99143.97;;;29.27;38.62
46412;BME280;32113;42.012;24.870;2022-09-09T09:29:14;99138.47;;;29.40;37.66
46412;BME280;32113;42.012;24.870;2022-09-09T09:32:14;99131.22;;;29.42;37.76
46412;BME280;32113;42.012;24.870;2022-09-09T09:34:32;99134.06;;;29.50;37.39
46412;BME280;32113;42.012;24.870;2022-09-09T09:36:58;99124.88;;;29.64;37.10
46412;BME280;32113;42.012;24.870;2022-09-09T09:39:31;99123.50;;;29.80;36.57
46412;BME280;32113;42.012;24.870;2022-09-09T09:41:56;99118.06;;;29.92;37.09
46412;BME280;32113;42.012;24.870;2022-09-09T09:44:26;99117.25;;;30.01;36.70
46412;BME280;32113;42.012;24.870;2022-09-09T09:46:52;99116.13;;;30.03;36.35
46412;BME280;32113;42.012;24.870;2022-09-09T09:49:18;99108.19;;;30.03;36.89
46412;BME280;32113;42.012;24.870;2022-09-09T09:51:43;99098.19;;;29.97;36.25
46412;BME280;32113;42.012;24.870;2022-09-09T09:54:28;99096.38;;;29.58;36.70
46412;BME280;32113;42.012;24.870;2022-09-09T09:56:54;99098.41;;;29.45;36.84
46412;BME280;32113;42.012;24.870;2022-09-09T09:59:31;99101.38;;;29.61;37.39
46412;BME280;32113;42.012;24.870;2022-09-09T10:04:38;99089.81;;;29.82;37.48
46412;BME280;32113;42.012;24.870;2022-09-09T10:07:15;99097.06;;;30.00;37.82
46412;BME280;32113;42.012;24.870;2022-09-09T10:09:42;99096.22;;;30.19;36.00
46412;BME280;32113;42.012;24.870;2022-09-09T10:12:23;99089.78;;;30.32;35.64
46412;BME280;32113;42.012;24.870;2022-09-09T10:17:28;99079.47;;;30.38;36.03
46412;BME280;32113;42.012;24.870;2022-09-09T10:20:10;99079.19;;;30.41;35.97
46412;BME280;32113;42.012;24.870;2022-09-09T10:22:40;99077.34;;;30.52;36.47
46412;BME280;32113;42.012;24.870;2022-09-09T10:30:40;99061.72;;;30.59;34.78
46412;BME280;32113;42.012;24.870;2022-09-09T10:35:31;99060.72;;;30.70;35.34
46412;BME280;32113;42.012;24.870;2022-09-09T10:53:30;99050.53;;;31.03;35.99
46412;BME280;32113;42.012;24.870;2022-09-09T10:56:05;99043.22;;;31.15;33.90
46412;BME280;32113;42.012;24.870;2022-09-09T10:58:35;99038.06;;;31.13;34.17
46412;BME280;32113;42.012;24.870;2022-09-09T11:01:17;99037.53;;;31.28;34.77
46412;BME280;32113;42.012;24.870;2022-09-09T11:03:43;99038.09;;;31.31;34.64
46412;BME280;32113;42.012;24.870;2022-09-09T11:06:14;99032.34;;;31.36;34.41
46412;BME280;32113;42.012;24.870;2022-09-09T11:08:41;99027.72;;;31.38;35.11
46412;BME280;32113;42.012;24.870;2022-09-09T11:13:39;99019.72;;;31.48;34.96
46412;BME280;32113;42.012;24.870;2022-09-09T11:18:46;99023.50;;;31.45;33.89
46412;BME280;32113;42.012;24.870;2022-09-09T11:21:15;99017.19;;;31.46;33.30
46412;BME280;32113;42.012;24.870;2022-09-09T11:23:44;99017.44;;;31.53;33.91
46412;BME280;32113;42.012;24.870;2022-09-09T11:26:18;99022.03;;;31.51;34.80
46412;BME280;32113;42.012;24.870;2022-09-09T11:31:29;99020.97;;;31.62;34.53
46412;BME280;32113;42.012;24.870;2022-09-09T11:41:40;99000.00;;;31.87;34.03
46412;BME280;32113;42.012;24.870;2022-09-09T11:44:10;98997.69;;;31.74;33.24
46412;BME280;32113;42.012;24.870;2022-09-09T11:46:36;98995.72;;;31.76;32.99
46412;BME280;32113;42.012;24.870;2022-09-09T11:49:04;98992.94;;;31.78;35.03
46412;BME280;32113;42.012;24.870;2022-09-09T11:51:31;98993.69;;;31.88;33.97
46412;BME280;32113;42.012;24.870;2022-09-09T11:54:25;98997.38;;;31.95;34.13
46412;BME280;32113;42.012;24.870;2022-09-09T11:56:45;98992.97;;;32.04;33.78
46412;BME280;32113;42.012;24.870;2022-09-09T12:01:49;98985.88;;;32.13;33.72
46412;BME280;32113;42.012;24.870;2022-09-09T12:04:16;98982.56;;;32.19;33.62
46412;BME280;32113;42.012;24.870;2022-09-09T12:06:46;98977.31;;;32.28;33.92
46412;BME280;32113;42.012;24.870;2022-09-09T12:11:49;98964.44;;;32.41;33.61
46412;BME280;32113;42.012;24.870;2022-09-09T12:17:30;98964.69;;;32.21;32.84
46412;BME280;32113;42.012;24.870;2022-09-09T12:26:19;98965.22;;;31.98;33.04
46412;BME280;32113;42.012;24.870;2022-09-09T12:28:15;98965.06;;;31.55;33.14
46412;BME280;32113;42.012;24.870;2022-09-09T12:33:11;98951.63;;;31.30;34.29
46412;BME280;32113;42.012;24.870;2022-09-09T12:35:37;98951.09;;;31.27;34.48
46412;BME280;32113;42.012;24.870;2022-09-09T12:38:04;98944.13;;;31.26;34.47
46412;BME280;32113;42.012;24.870;2022-09-09T12:40:32;98928.38;;;31.24;34.94
46412;BME280;32113;42.012;24.870;2022-09-09T12:43:00;98919.94;;;31.29;35.30
46412;BME280;32113;42.012;24.870;2022-09-09T12:45:27;98930.72;;;31.45;35.33
46412;BME280;32113;42.012;24.870;2022-09-09T12:48:00;98926.81;;;31.58;34.45
46412;BME280;32113;42.012;24.870;2022-09-09T12:50:31;98916.56;;;31.63;34.76
46412;BME280;32113;42.012;24.870;2022-09-09T12:52:58;98919.06;;;31.65;33.14
46412;BME280;32113;42.012;24.870;2022-09-09T12:55:25;98916.19;;;31.76;34.05
46412;BME280;32113;42.012;24.870;2022-09-09T12:57:52;98911.97;;;31.92;34.26
46412;BME280;32113;42.012;24.870;2022-09-09T13:00:21;98913.63;;;31.93;34.38
46412;BME280;32113;42.012;24.870;2022-09-09T13:02:52;98917.78;;;31.95;33.75
46412;BME280;32113;42.012;24.870;2022-09-09T13:05:19;98910.31;;;31.91;33.90
46412;BME280;32113;42.012;24.870;2022-09-09T13:07:45;98899.56;;;31.74;33.85
46412;BME280;32113;42.012;24.870;2022-09-09T13:10:11;98906.09;;;31.80;34.21
46412;BME280;32113;42.012;24.870;2022-09-09T13:12:36;98901.88;;;31.69;33.71
46412;BME280;32113;42.012;24.870;2022-09-09T13:15:02;98906.38;;;31.68;34.67
46412;BME280;32113;42.012;24.870;2022-09-09T13:17:28;98899.38;;;31.67;34.70
46412;BME280;32113;42.012;24.870;2022-09-09T13:19:56;98897.63;;;31.76;34.48
46412;BME280;32113;42.012;24.870;2022-09-09T13:22:35;98896.69;;;31.85;34.30
46412;BME280;32113;42.012;24.870;2022-09-09T13:27:36;98889.91;;;31.91;34.39
46412;BME280;32113;42.012;24.870;2022-09-09T13:30:22;98888.16;;;32.00;33.52
46412;BME280;32113;42.012;24.870;2022-09-09T13:32:59;98884.81;;;31.98;33.78
46412;BME280;32113;42.012;24.870;2022-09-09T13:35:26;98881.34;;;31.97;33.63
46412;BME280;32113;42.012;24.870;2022-09-09T13:37:51;98887.31;;;31.99;34.06
46412;BME280;32113;42.012;24.870;2022-09-09T13:40:17;98887.00;;;32.03;35.21
46412;BME280;32113;42.012;24.870;2022-09-09T13:42:43;98882.56;;;32.11;34.45
46412;BME280;32113;42.012;24.870;2022-09-09T13:45:16;98885.25;;;32.20;33.76
46412;BME280;32113;42.012;24.870;2022-09-09T13:47:42;98881.44;;;32.22;33.90
46412;BME280;32113;42.012;24.870;2022-09-09T13:50:27;98873.81;;;32.28;34.10
46412;BME280;32113;42.012;24.870;2022-09-09T13:52:54;98866.69;;;32.28;32.97
46412;BME280;32113;42.012;24.870;2022-09-09T13:55:20;98869.38;;;32.36;33.61
46412;BME280;32113;42.012;24.870;2022-09-09T13:57:54;98865.78;;;32.46;32.98
46412;BME280;32113;42.012;24.870;2022-09-09T14:00:20;98861.81;;;32.58;32.83
46412;BME280;32113;42.012;24.870;2022-09-09T14:02:46;98866.13;;;32.59;32.87
46412;BME280;32113;42.012;24.870;2022-09-09T14:05:12;98861.31;;;32.55;33.52
46412;BME280;32113;42.012;24.870;2022-09-09T14:07:37;98864.94;;;32.45;33.92
46412;BME280;32113;42.012;24.870;2022-09-09T14:10:04;98852.97;;;32.41;33.92
46412;BME280;32113;42.012;24.870;2022-09-09T14:12:29;98846.28;;;32.29;33.19
46412;BME280;32113;42.012;24.870;2022-09-09T14:14:55;98847.66;;;31.90;33.98
46412;BME280;32113;42.012;24.870;2022-09-09T14:17:20;98850.13;;;31.91;34.47
46412;BME280;32113;42.012;24.870;2022-09-09T14:19:47;98846.44;;;31.84;34.84
46412;BME280;32113;42.012;24.870;2022-09-09T14:22:12;98843.44;;;31.79;34.47
46412;BME280;32113;42.012;24.870;2022-09-09T14:24:37;98848.75;;;31.79;33.95
46412;BME280;32113;42.012;24.870;2022-09-09T14:27:03;98841.03;;;31.67;34.68
46412;BME280;32113;42.012;24.870;2022-09-09T14:29:28;98847.50;;;31.65;35.33
46412;BME280;32113;42.012;24.870;2022-09-09T14:31:53;98843.97;;;31.56;35.65
46412;BME280;32113;42.012;24.870;2022-09-09T14:34:19;98839.63;;;31.46;35.65
46412;BME280;32113;42.012;24.870;2022-09-09T14:36:44;98840.41;;;31.39;35.54
46412;BME280;32113;42.012;24.870;2022-09-09T14:39:10;98840.19;;;31.32;35.88
46412;BME280;32113;42.012;24.870;2022-09-09T14:41:35;98834.94;;;31.40;35.40
46412;BME280;32113;42.012;24.870;2022-09-09T14:44:00;98834.28;;;31.20;35.93
46412;BME280;32113;42.012;24.870;2022-09-09T14:46:25;98835.72;;;31.14;35.87
46412;BME280;32113;42.012;24.870;2022-09-09T14:48:51;98833.38;;;31.11;36.71
46412;BME280;32113;42.012;24.870;2022-09-09T14:51:18;98836.31;;;31.26;35.85
46412;BME280;32113;42.012;24.870;2022-09-09T14:53:44;98840.47;;;31.29;35.81
46412;BME280;32113;42.012;24.870;2022-09-09T14:56:14;98846.31;;;31.32;35.86
46412;BME280;32113;42.012;24.870;2022-09-09T14:58:40;98839.78;;;31.27;36.29
46412;BME280;32113;42.012;24.870;2022-09-09T15:01:06;98840.34;;;31.30;35.84